sensor_id;sensor_type;location;lat;lon;timestamp;P1;durP1;ratioP1;P2;durP2;ratioP2
55292;SDS011;41157;53.560;10.098;2022-07-18T00:02:00;4.20;;;3.10;;
55292;SDS011;41157;53.560;10.098;2022-07-18T00:04:27;4.67;;;2.93;;
55292;SDS011;41157;53.560;10.098;2022-07-18T00:06:54;4.10;;;2.83;;
55292;SDS011;41157;53.560;10.098;2022-07-18T00:09:20;5.37;;;2.63;;
55292;SDS011;41157;53.560;10.098;2022-07-18T00:11:48;4.57;;;2.70;;
55292;SDS011;41157;53.560;10.098;2022-07-18T00:14:14;3.60;;;3.30;;
55292;SDS011;41157;53.560;10.098;2022-07-18T00:16:40;7.13;;;3.17;;
55292;SDS011;41157;53.560;10.098;2022-07-18T00:19:06;3.30;;;2.90;;
55292;SDS011;41157;53.560;10.098;2022-07-18T00:21:32;3.13;;;2.77;;
55292;SDS011;41157;53.560;10.098;2022-07-18T00:23:58;4.90;;;2.90;;
55292;SDS011;41157;53.560;10.098;2022-07-18T00:26:24;3.50;;;2.60;;
55292;SDS011;41157;53.560;10.098;2022-07-18T00:28:50;2.90;;;2.50;;
55292;SDS011;41157;53.560;10.098;2022-07-18T00:31:16;3.83;;;2.90;;
55292;SDS011;41157;53.560;10.098;2022-07-18T00:33:42;2.90;;;2.60;;
55292;SDS011;41157;53.560;10.098;2022-07-18T00:36:08;5.80;;;3.10;;
55292;SDS011;41157;53.560;10.098;2022-07-18T00:38:34;5.20;;;3.00;;
55292;SDS011;41157;53.560;10.098;2022-07-18T00:41:00;3.77;;;2.53;;
55292;SDS011;41157;53.560;10.098;2022-07-18T00:43:26;3.47;;;2.80;;
55292;SDS011;41157;53.560;10.098;2022-07-18T00:45:52;4.23;;;2.80;;
55292;SDS011;41157;53.560;10.098;2022-07-18T00:48:19;4.07;;;2.97;;
55292;SDS011;41157;53.560;10.098;2022-07-18T00:50:45;3.20;;;2.67;;
55292;SDS011;41157;53.560;10.098;2022-07-18T00:53:11;4.63;;;3.13;;
55292;SDS011;41157;53.560;10.098;2022-07-18T00:55:38;3.60;;;3.10;;
55292;SDS011;41157;53.560;10.098;2022-07-18T00:58:04;3.57;;;2.90;;
55292;SDS011;41157;53.560;10.098;2022-07-18T01:00:30;4.47;;;2.47;;
55292;SDS011;41157;53.560;10.098;2022-07-18T01:03:15;3.27;;;2.60;;
55292;SDS011;41157;53.560;10.098;2022-07-18T01:05:41;3.27;;;2.87;;
55292;SDS011;41157;53.560;10.098;2022-07-18T01:08:07;3.73;;;3.07;;
55292;SDS011;41157;53.560;10.098;2022-07-18T01:10:33;3.97;;;3.00;;
55292;SDS011;41157;53.560;10.098;2022-07-18T01:12:59;3.97;;;2.97;;
55292;SDS011;41157;53.560;10.098;2022-07-18T01:15:25;4.57;;;2.97;;
55292;SDS011;41157;53.560;10.098;2022-07-18T01:17:51;3.77;;;2.57;;
55292;SDS011;41157;53.560;10.098;2022-07-18T01:20:17;3.87;;;3.07;;
55292;SDS011;41157;53.560;10.098;2022-07-18T01:22:43;7.50;;;3.33;;
55292;SDS011;41157;53.560;10.098;2022-07-18T01:25:10;5.23;;;3.27;;
55292;SDS011;41157;53.560;10.098;2022-07-18T01:27:36;3.50;;;3.10;;
55292;SDS011;41157;53.560;10.098;2022-07-18T01:30:03;4.20;;;3.10;;
55292;SDS011;41157;53.560;10.098;2022-07-18T01:32:29;5.23;;;3.33;;
55292;SDS011;41157;53.560;10.098;2022-07-18T01:34:55;8.43;;;3.43;;
55292;SDS011;41157;53.560;10.098;2022-07-18T01:37:21;3.93;;;3.30;;
55292;SDS011;41157;53.560;10.098;2022-07-18T01:39:47;5.27;;;3.17;;
55292;SDS011;41157;53.560;10.098;2022-07-18T01:42:13;3.63;;;2.90;;
55292;SDS011;41157;53.560;10.098;2022-07-18T01:44:40;4.83;;;3.67;;
55292;SDS011;41157;53.560;10.098;2022-07-18T01:47:07;5.37;;;3.87;;
55292;SDS011;41157;53.560;10.098;2022-07-18T01:49:34;4.87;;;3.47;;
55292;SDS011;41157;53.560;10.098;2022-07-18T01:52:03;5.43;;;3.20;;
55292;SDS011;41157;53.560;10.098;2022-07-18T01:54:30;7.20;;;3.20;;
55292;SDS011;41157;53.560;10.098;2022-07-18T01:56:56;4.13;;;3.20;;
55292;SDS011;41157;53.560;10.098;2022-07-18T01:59:22;8.30;;;3.20;;
55292;SDS011;41157;53.560;10.098;2022-07-18T02:01:49;6.00;;;3.60;;
55292;SDS011;41157;53.560;10.098;2022-07-18T02:04:15;4.77;;;3.40;;
55292;SDS011;41157;53.560;10.098;2022-07-18T02:06:41;4.47;;;3.60;;
55292;SDS011;41157;53.560;10.098;2022-07-18T02:09:07;4.07;;;3.43;;
55292;SDS011;41157;53.560;10.098;2022-07-18T02:11:34;6.20;;;3.10;;
55292;SDS011;41157;53.560;10.098;2022-07-18T02:14:00;5.77;;;3.43;;
55292;SDS011;41157;53.560;10.098;2022-07-18T02:16:26;4.13;;;3.27;;
55292;SDS011;41157;53.560;10.098;2022-07-18T02:18:53;8.10;;;3.50;;
55292;SDS011;41157;53.560;10.098;2022-07-18T02:21:19;4.07;;;3.30;;
55292;SDS011;41157;53.560;10.098;2022-07-18T02:23:45;6.27;;;3.47;;
55292;SDS011;41157;53.560;10.098;2022-07-18T02:26:12;6.53;;;3.83;;
55292;SDS011;41157;53.560;10.098;2022-07-18T02:28:38;6.23;;;3.73;;
55292;SDS011;41157;53.560;10.098;2022-07-18T02:31:04;4.40;;;3.13;;
55292;SDS011;41157;53.560;10.098;2022-07-18T02:33:30;8.47;;;3.53;;
55292;SDS011;41157;53.560;10.098;2022-07-18T02:35:56;4.00;;;3.50;;
55292;SDS011;41157;53.560;10.098;2022-07-18T02:38:23;5.00;;;3.83;;
55292;SDS011;41157;53.560;10.098;2022-07-18T02:40:48;5.43;;;3.63;;
55292;SDS011;41157;53.560;10.098;2022-07-18T02:43:15;8.40;;;3.63;;
55292;SDS011;41157;53.560;10.098;2022-07-18T02:45:40;5.10;;;3.73;;
55292;SDS011;41157;53.560;10.098;2022-07-18T02:48:07;4.67;;;3.47;;
55292;SDS011;41157;53.560;10.098;2022-07-18T02:50:33;5.10;;;3.60;;
55292;SDS011;41157;53.560;10.098;2022-07-18T02:52:59;4.37;;;3.27;;
55292;SDS011;41157;53.560;10.098;2022-07-18T02:55:25;5.80;;;3.73;;
55292;SDS011;41157;53.560;10.098;2022-07-18T02:57:51;4.53;;;3.73;;
55292;SDS011;41157;53.560;10.098;2022-07-18T03:00:17;5.37;;;3.93;;
55292;SDS011;41157;53.560;10.098;2022-07-18T03:02:44;7.03;;;4.47;;
55292;SDS011;41157;53.560;10.098;2022-07-18T03:05:11;8.63;;;4.80;;
55292;SDS011;41157;53.560;10.098;2022-07-18T03:07:37;6.17;;;3.67;;
55292;SDS011;41157;53.560;10.098;2022-07-18T03:10:04;7.50;;;4.37;;
55292;SDS011;41157;53.560;10.098;2022-07-18T03:12:30;12.77;;;4.53;;
55292;SDS011;41157;53.560;10.098;2022-07-18T03:14:56;4.00;;;3.57;;
55292;SDS011;41157;53.560;10.098;2022-07-18T03:17:22;5.37;;;3.97;;
55292;SDS011;41157;53.560;10.098;2022-07-18T03:19:48;6.27;;;4.47;;
55292;SDS011;41157;53.560;10.098;2022-07-18T03:22:14;6.00;;;4.20;;
55292;SDS011;41157;53.560;10.098;2022-07-18T03:24:40;5.70;;;4.07;;
55292;SDS011;41157;53.560;10.098;2022-07-18T03:27:06;6.23;;;4.17;;
55292;SDS011;41157;53.560;10.098;2022-07-18T03:29:32;6.60;;;3.50;;
55292;SDS011;41157;53.560;10.098;2022-07-18T03:31:58;7.77;;;3.93;;
55292;SDS011;41157;53.560;10.098;2022-07-18T03:34:24;6.17;;;4.20;;
55292;SDS011;41157;53.560;10.098;2022-07-18T03:36:50;7.13;;;3.90;;
55292;SDS011;41157;53.560;10.098;2022-07-18T03:39:16;6.30;;;4.50;;
55292;SDS011;41157;53.560;10.098;2022-07-18T03:41:42;6.23;;;3.90;;
55292;SDS011;41157;53.560;10.098;2022-07-18T03:44:08;6.23;;;4.53;;
55292;SDS011;41157;53.560;10.098;2022-07-18T03:46:34;9.47;;;4.57;;
55292;SDS011;41157;53.560;10.098;2022-07-18T03:49:00;6.23;;;4.87;;
55292;SDS011;41157;53.560;10.098;2022-07-18T03:51:26;5.43;;;4.67;;
55292;SDS011;41157;53.560;10.098;2022-07-18T03:53:52;8.27;;;4.50;;
55292;SDS011;41157;53.560;10.098;2022-07-18T03:56:18;6.03;;;4.40;;
55292;SDS011;41157;53.560;10.098;2022-07-18T03:58:44;6.97;;;4.50;;
55292;SDS011;41157;53.560;10.098;2022-07-18T04:01:10;6.33;;;4.80;;
55292;SDS011;41157;53.560;10.098;2022-07-18T04:03:37;6.03;;;4.40;;
55292;SDS011;41157;53.560;10.098;2022-07-18T04:06:03;6.13;;;4.30;;
55292;SDS011;41157;53.560;10.098;2022-07-18T04:08:29;7.90;;;4.50;;
55292;SDS011;41157;53.560;10.098;2022-07-18T04:10:55;8.23;;;4.80;;
55292;SDS011;41157;53.560;10.098;2022-07-18T04:13:21;5.90;;;4.57;;
55292;SDS011;41157;53.560;10.098;2022-07-18T04:15:47;7.77;;;4.20;;
55292;SDS011;41157;53.560;10.098;2022-07-18T04:18:13;5.23;;;4.23;;
55292;SDS011;41157;53.560;10.098;2022-07-18T04:20:38;6.17;;;4.20;;
55292;SDS011;41157;53.560;10.098;2022-07-18T04:23:05;5.40;;;4.03;;
55292;SDS011;41157;53.560;10.098;2022-07-18T04:25:39;4.90;;;4.27;;
55292;SDS011;41157;53.560;10.098;2022-07-18T04:28:05;5.30;;;3.87;;
55292;SDS011;41157;53.560;10.098;2022-07-18T04:30:32;4.40;;;4.00;;
55292;SDS011;41157;53.560;10.098;2022-07-18T04:33:00;6.10;;;4.53;;
55292;SDS011;41157;53.560;10.098;2022-07-18T04:35:27;6.33;;;4.50;;
55292;SDS011;41157;53.560;10.098;2022-07-18T04:37:53;8.67;;;4.23;;
55292;SDS011;41157;53.560;10.098;2022-07-18T04:40:19;7.13;;;4.37;;
55292;SDS011;41157;53.560;10.098;2022-07-18T04:42:45;6.07;;;4.30;;
55292;SDS011;41157;53.560;10.098;2022-07-18T04:45:11;7.00;;;4.10;;
55292;SDS011;41157;53.560;10.098;2022-07-18T04:47:37;6.33;;;4.17;;
55292;SDS011;41157;53.560;10.098;2022-07-18T04:50:04;5.80;;;4.80;;
55292;SDS011;41157;53.560;10.098;2022-07-18T04:52:40;7.13;;;5.07;;
55292;SDS011;41157;53.560;10.098;2022-07-18T04:55:07;6.57;;;4.70;;
55292;SDS011;41157;53.560;10.098;2022-07-18T04:57:33;4.40;;;3.90;;
55292;SDS011;41157;53.560;10.098;2022-07-18T05:00:00;6.90;;;4.90;;
55292;SDS011;41157;53.560;10.098;2022-07-18T05:02:26;5.87;;;4.57;;
55292;SDS011;41157;53.560;10.098;2022-07-18T05:04:52;7.13;;;4.40;;
55292;SDS011;41157;53.560;10.098;2022-07-18T05:07:18;10.27;;;7.63;;
55292;SDS011;41157;53.560;10.098;2022-07-18T05:09:44;7.73;;;5.20;;
55292;SDS011;41157;53.560;10.098;2022-07-18T05:12:10;8.77;;;4.40;;
55292;SDS011;41157;53.560;10.098;2022-07-18T05:14:35;6.57;;;4.30;;
55292;SDS011;41157;53.560;10.098;2022-07-18T05:17:01;5.67;;;4.60;;
55292;SDS011;41157;53.560;10.098;2022-07-18T05:19:28;5.93;;;4.17;;
55292;SDS011;41157;53.560;10.098;2022-07-18T05:21:54;9.47;;;4.13;;
55292;SDS011;41157;53.560;10.098;2022-07-18T05:24:20;7.23;;;4.23;;
55292;SDS011;41157;53.560;10.098;2022-07-18T05:26:46;7.90;;;4.27;;
55292;SDS011;41157;53.560;10.098;2022-07-18T05:29:13;7.17;;;4.33;;
55292;SDS011;41157;53.560;10.098;2022-07-18T05:31:39;10.60;;;4.43;;
55292;SDS011;41157;53.560;10.098;2022-07-18T05:34:06;9.00;;;4.60;;
55292;SDS011;41157;53.560;10.098;2022-07-18T05:36:32;7.47;;;4.70;;
55292;SDS011;41157;53.560;10.098;2022-07-18T05:38:58;9.07;;;4.90;;
55292;SDS011;41157;53.560;10.098;2022-07-18T05:41:24;11.90;;;4.57;;
55292;SDS011;41157;53.560;10.098;2022-07-18T05:43:50;6.93;;;4.43;;
55292;SDS011;41157;53.560;10.098;2022-07-18T05:46:16;7.80;;;4.13;;
55292;SDS011;41157;53.560;10.098;2022-07-18T05:48:42;9.20;;;4.50;;
55292;SDS011;41157;53.560;10.098;2022-07-18T05:51:08;8.10;;;4.20;;
55292;SDS011;41157;53.560;10.098;2022-07-18T05:53:35;15.17;;;4.23;;
55292;SDS011;41157;53.560;10.098;2022-07-18T05:56:01;14.10;;;4.70;;
55292;SDS011;41157;53.560;10.098;2022-07-18T05:58:27;10.33;;;4.20;;
55292;SDS011;41157;53.560;10.098;2022-07-18T06:00:53;12.57;;;4.40;;
55292;SDS011;41157;53.560;10.098;2022-07-18T06:03:19;7.03;;;3.77;;
55292;SDS011;41157;53.560;10.098;2022-07-18T06:05:45;10.37;;;4.00;;
55292;SDS011;41157;53.560;10.098;2022-07-18T06:08:11;9.83;;;4.43;;
55292;SDS011;41157;53.560;10.098;2022-07-18T06:10:37;7.90;;;4.20;;
55292;SDS011;41157;53.560;10.098;2022-07-18T06:13:03;10.23;;;4.10;;
55292;SDS011;41157;53.560;10.098;2022-07-18T06:15:29;11.00;;;4.10;;
55292;SDS011;41157;53.560;10.098;2022-07-18T06:17:55;13.57;;;4.23;;
55292;SDS011;41157;53.560;10.098;2022-07-18T06:20:20;8.80;;;3.70;;
55292;SDS011;41157;53.560;10.098;2022-07-18T06:22:47;7.15;;;3.70;;
55292;SDS011;41157;53.560;10.098;2022-07-18T06:25:13;8.13;;;3.40;;
55292;SDS011;41157;53.560;10.098;2022-07-18T06:27:39;6.00;;;3.88;;
55292;SDS011;41157;53.560;10.098;2022-07-18T06:30:05;8.70;;;3.80;;
55292;SDS011;41157;53.560;10.098;2022-07-18T06:32:32;6.57;;;3.60;;
55292;SDS011;41157;53.560;10.098;2022-07-18T06:34:58;8.65;;;4.05;;
55292;SDS011;41157;53.560;10.098;2022-07-18T06:37:24;8.35;;;3.55;;
55292;SDS011;41157;53.560;10.098;2022-07-18T06:39:50;9.50;;;3.55;;
55292;SDS011;41157;53.560;10.098;2022-07-18T06:42:16;8.13;;;4.05;;
55292;SDS011;41157;53.560;10.098;2022-07-18T06:44:42;12.20;;;3.70;;
55292;SDS011;41157;53.560;10.098;2022-07-18T06:47:08;8.50;;;4.15;;
55292;SDS011;41157;53.560;10.098;2022-07-18T06:49:34;12.80;;;4.35;;
55292;SDS011;41157;53.560;10.098;2022-07-18T06:52:00;9.05;;;3.92;;
55292;SDS011;41157;53.560;10.098;2022-07-18T06:54:26;5.13;;;3.55;;
55292;SDS011;41157;53.560;10.098;2022-07-18T06:56:55;10.27;;;4.25;;
55292;SDS011;41157;53.560;10.098;2022-07-18T06:59:21;6.60;;;3.75;;
55292;SDS011;41157;53.560;10.098;2022-07-18T07:01:48;9.00;;;4.63;;
55292;SDS011;41157;53.560;10.098;2022-07-18T07:04:14;12.65;;;4.25;;
55292;SDS011;41157;53.560;10.098;2022-07-18T07:06:40;14.02;;;4.05;;
55292;SDS011;41157;53.560;10.098;2022-07-18T07:09:06;11.00;;;4.30;;
55292;SDS011;41157;53.560;10.098;2022-07-18T07:11:32;9.45;;;4.10;;
55292;SDS011;41157;53.560;10.098;2022-07-18T07:13:58;10.75;;;4.72;;
55292;SDS011;41157;53.560;10.098;2022-07-18T07:16:24;8.38;;;4.20;;
55292;SDS011;41157;53.560;10.098;2022-07-18T07:18:50;9.32;;;3.85;;
55292;SDS011;41157;53.560;10.098;2022-07-18T07:21:16;7.15;;;4.22;;
55292;SDS011;41157;53.560;10.098;2022-07-18T07:23:42;6.13;;;4.10;;
55292;SDS011;41157;53.560;10.098;2022-07-18T07:26:08;10.25;;;4.00;;
55292;SDS011;41157;53.560;10.098;2022-07-18T07:28:34;7.75;;;4.13;;
55292;SDS011;41157;53.560;10.098;2022-07-18T07:31:00;8.63;;;3.97;;
55292;SDS011;41157;53.560;10.098;2022-07-18T07:33:26;13.32;;;4.00;;
55292;SDS011;41157;53.560;10.098;2022-07-18T07:35:52;8.75;;;4.32;;
55292;SDS011;41157;53.560;10.098;2022-07-18T07:38:18;6.68;;;4.15;;
55292;SDS011;41157;53.560;10.098;2022-07-18T07:40:45;5.93;;;4.05;;
55292;SDS011;41157;53.560;10.098;2022-07-18T07:43:12;8.82;;;4.22;;
55292;SDS011;41157;53.560;10.098;2022-07-18T07:45:38;6.93;;;3.88;;
55292;SDS011;41157;53.560;10.098;2022-07-18T07:48:04;5.53;;;4.00;;
55292;SDS011;41157;53.560;10.098;2022-07-18T07:50:30;10.73;;;3.85;;
55292;SDS011;41157;53.560;10.098;2022-07-18T07:52:57;6.53;;;4.13;;
55292;SDS011;41157;53.560;10.098;2022-07-18T07:55:23;5.63;;;4.10;;
55292;SDS011;41157;53.560;10.098;2022-07-18T07:57:50;5.15;;;4.50;;
55292;SDS011;41157;53.560;10.098;2022-07-18T08:00:16;4.68;;;4.05;;
55292;SDS011;41157;53.560;10.098;2022-07-18T08:02:55;4.95;;;4.20;;
55292;SDS011;41157;53.560;10.098;2022-07-18T08:05:21;6.18;;;4.28;;
55292;SDS011;41157;53.560;10.098;2022-07-18T08:07:47;4.70;;;4.05;;
55292;SDS011;41157;53.560;10.098;2022-07-18T08:10:13;5.93;;;4.25;;
55292;SDS011;41157;53.560;10.098;2022-07-18T08:12:39;4.75;;;4.28;;
55292;SDS011;41157;53.560;10.098;2022-07-18T08:15:05;10.93;;;6.55;;
55292;SDS011;41157;53.560;10.098;2022-07-18T08:17:31;6.85;;;4.72;;
55292;SDS011;41157;53.560;10.098;2022-07-18T08:19:57;6.65;;;4.70;;
55292;SDS011;41157;53.560;10.098;2022-07-18T08:22:24;4.82;;;4.10;;
55292;SDS011;41157;53.560;10.098;2022-07-18T08:24:50;8.70;;;4.45;;
55292;SDS011;41157;53.560;10.098;2022-07-18T08:27:16;9.05;;;4.63;;
55292;SDS011;41157;53.560;10.098;2022-07-18T08:29:42;8.02;;;4.07;;
55292;SDS011;41157;53.560;10.098;2022-07-18T08:32:08;5.88;;;3.97;;
55292;SDS011;41157;53.560;10.098;2022-07-18T08:34:34;7.55;;;4.72;;
55292;SDS011;41157;53.560;10.098;2022-07-18T08:37:00;12.07;;;4.57;;
55292;SDS011;41157;53.560;10.098;2022-07-18T08:39:26;7.35;;;4.45;;
55292;SDS011;41157;53.560;10.098;2022-07-18T08:41:52;6.68;;;4.30;;
55292;SDS011;41157;53.560;10.098;2022-07-18T08:44:18;10.45;;;4.22;;
55292;SDS011;41157;53.560;10.098;2022-07-18T08:46:48;10.13;;;3.75;;
55292;SDS011;41157;53.560;10.098;2022-07-18T08:49:15;5.90;;;4.38;;
55292;SDS011;41157;53.560;10.098;2022-07-18T08:51:41;12.45;;;4.20;;
55292;SDS011;41157;53.560;10.098;2022-07-18T08:54:08;9.23;;;4.25;;
55292;SDS011;41157;53.560;10.098;2022-07-18T08:56:34;8.15;;;3.92;;
55292;SDS011;41157;53.560;10.098;2022-07-18T08:59:00;9.52;;;4.30;;
55292;SDS011;41157;53.560;10.098;2022-07-18T09:01:27;5.65;;;4.20;;
55292;SDS011;41157;53.560;10.098;2022-07-18T09:03:53;5.63;;;3.83;;
55292;SDS011;41157;53.560;10.098;2022-07-18T09:06:42;8.23;;;4.15;;
55292;SDS011;41157;53.560;10.098;2022-07-18T09:09:09;5.22;;;3.70;;
55292;SDS011;41157;53.560;10.098;2022-07-18T09:11:36;9.38;;;3.72;;
55292;SDS011;41157;53.560;10.098;2022-07-18T09:14:02;8.85;;;4.50;;
55292;SDS011;41157;53.560;10.098;2022-07-18T09:16:28;7.47;;;4.93;;
55292;SDS011;41157;53.560;10.098;2022-07-18T09:18:54;6.43;;;4.05;;
55292;SDS011;41157;53.560;10.098;2022-07-18T09:21:22;5.80;;;4.43;;
55292;SDS011;41157;53.560;10.098;2022-07-18T09:23:49;7.35;;;4.40;;
55292;SDS011;41157;53.560;10.098;2022-07-18T09:26:37;7.03;;;4.63;;
55292;SDS011;41157;53.560;10.098;2022-07-18T09:29:03;5.80;;;4.50;;
55292;SDS011;41157;53.560;10.098;2022-07-18T09:31:29;8.88;;;4.53;;
55292;SDS011;41157;53.560;10.098;2022-07-18T09:33:57;8.13;;;4.60;;
55292;SDS011;41157;53.560;10.098;2022-07-18T09:36:23;4.78;;;3.97;;
55292;SDS011;41157;53.560;10.098;2022-07-18T09:38:49;6.57;;;4.00;;
55292;SDS011;41157;53.560;10.098;2022-07-18T09:41:15;8.40;;;3.97;;
55292;SDS011;41157;53.560;10.098;2022-07-18T09:43:41;6.53;;;4.50;;
55292;SDS011;41157;53.560;10.098;2022-07-18T09:46:08;6.05;;;4.63;;
55292;SDS011;41157;53.560;10.098;2022-07-18T09:48:34;11.88;;;4.40;;
55292;SDS011;41157;53.560;10.098;2022-07-18T09:51:06;9.15;;;4.78;;
55292;SDS011;41157;53.560;10.098;2022-07-18T09:53:36;6.38;;;4.30;;
55292;SDS011;41157;53.560;10.098;2022-07-18T09:56:03;6.97;;;4.45;;
55292;SDS011;41157;53.560;10.098;2022-07-18T09:58:31;5.07;;;4.20;;
55292;SDS011;41157;53.560;10.098;2022-07-18T10:00:58;7.07;;;4.28;;
55292;SDS011;41157;53.560;10.098;2022-07-18T10:03:24;8.80;;;4.63;;
55292;SDS011;41157;53.560;10.098;2022-07-18T10:05:54;8.75;;;4.60;;
55292;SDS011;41157;53.560;10.098;2022-07-18T10:08:20;6.97;;;3.83;;
55292;SDS011;41157;53.560;10.098;2022-07-18T10:10:48;7.40;;;4.00;;
55292;SDS011;41157;53.560;10.098;2022-07-18T10:13:14;5.47;;;3.97;;
55292;SDS011;41157;53.560;10.098;2022-07-18T10:15:41;6.03;;;3.88;;
55292;SDS011;41157;53.560;10.098;2022-07-18T10:18:08;7.13;;;4.18;;
55292;SDS011;41157;53.560;10.098;2022-07-18T10:23:07;13.50;;;4.10;;
55292;SDS011;41157;53.560;10.098;2022-07-18T10:25:33;31.20;;;5.50;;
55292;SDS011;41157;53.560;10.098;2022-07-18T10:28:07;8.00;;;3.40;;
55292;SDS011;41157;53.560;10.098;2022-07-18T10:30:37;6.47;;;3.63;;
55292;SDS011;41157;53.560;10.098;2022-07-18T10:33:05;6.75;;;3.63;;
55292;SDS011;41157;53.560;10.098;2022-07-18T10:41:33;9.82;;;3.83;;
55292;SDS011;41157;53.560;10.098;2022-07-18T10:43:59;4.70;;;4.00;;
55292;SDS011;41157;53.560;10.098;2022-07-18T10:46:27;7.45;;;3.85;;
55292;SDS011;41157;53.560;10.098;2022-07-18T10:49:11;9.93;;;3.58;;
55292;SDS011;41157;53.560;10.098;2022-07-18T10:51:37;7.13;;;3.75;;
55292;SDS011;41157;53.560;10.098;2022-07-18T10:54:04;7.13;;;3.90;;
55292;SDS011;41157;53.560;10.098;2022-07-18T10:59:15;5.93;;;4.07;;
55292;SDS011;41157;53.560;10.098;2022-07-18T11:01:47;5.78;;;4.15;;
55292;SDS011;41157;53.560;10.098;2022-07-18T11:04:25;6.70;;;4.13;;
55292;SDS011;41157;53.560;10.098;2022-07-18T11:07:05;5.40;;;3.72;;
55292;SDS011;41157;53.560;10.098;2022-07-18T11:09:35;8.38;;;3.85;;
55292;SDS011;41157;53.560;10.098;2022-07-18T11:20:22;8.13;;;3.75;;
55292;SDS011;41157;53.560;10.098;2022-07-18T11:22:48;7.55;;;4.20;;
55292;SDS011;41157;53.560;10.098;2022-07-18T11:25:16;6.05;;;4.25;;
55292;SDS011;41157;53.560;10.098;2022-07-18T11:27:42;9.70;;;4.45;;
55292;SDS011;41157;53.560;10.098;2022-07-18T11:30:09;9.23;;;4.30;;
55292;SDS011;41157;53.560;10.098;2022-07-18T11:32:35;4.57;;;3.80;;
55292;SDS011;41157;53.560;10.098;2022-07-18T11:35:01;9.57;;;4.15;;
55292;SDS011;41157;53.560;10.098;2022-07-18T11:37:31;13.75;;;4.38;;
55292;SDS011;41157;53.560;10.098;2022-07-18T11:40:04;10.27;;;4.32;;
55292;SDS011;41157;53.560;10.098;2022-07-18T11:42:39;5.65;;;3.70;;
55292;SDS011;41157;53.560;10.098;2022-07-18T11:45:06;7.30;;;4.10;;
55292;SDS011;41157;53.560;10.098;2022-07-18T11:50:05;5.15;;;3.22;;
55292;SDS011;41157;53.560;10.098;2022-07-18T11:52:31;5.68;;;3.67;;
55292;SDS011;41157;53.560;10.098;2022-07-18T11:54:58;7.88;;;3.72;;
55292;SDS011;41157;53.560;10.098;2022-07-18T11:57:29;5.88;;;3.55;;
55292;SDS011;41157;53.560;10.098;2022-07-18T11:59:55;7.28;;;3.55;;
55292;SDS011;41157;53.560;10.098;2022-07-18T12:02:21;8.02;;;3.80;;
55292;SDS011;41157;53.560;10.098;2022-07-18T12:04:47;4.90;;;3.53;;
55292;SDS011;41157;53.560;10.098;2022-07-18T12:07:25;11.13;;;3.80;;
55292;SDS011;41157;53.560;10.098;2022-07-18T12:09:52;10.25;;;4.30;;
55292;SDS011;41157;53.560;10.098;2022-07-18T12:12:19;39.50;;;7.65;;
55292;SDS011;41157;53.560;10.098;2022-07-18T12:14:52;6.18;;;3.88;;
55292;SDS011;41157;53.560;10.098;2022-07-18T12:17:18;5.35;;;3.72;;
55292;SDS011;41157;53.560;10.098;2022-07-18T12:19:44;6.25;;;3.83;;
55292;SDS011;41157;53.560;10.098;2022-07-18T12:22:10;4.95;;;3.38;;
55292;SDS011;41157;53.560;10.098;2022-07-18T12:24:37;7.40;;;3.70;;
55292;SDS011;41157;53.560;10.098;2022-07-18T12:32:21;4.63;;;3.42;;
55292;SDS011;41157;53.560;10.098;2022-07-18T12:34:59;6.38;;;3.17;;
55292;SDS011;41157;53.560;10.098;2022-07-18T12:37:25;7.28;;;3.42;;
55292;SDS011;41157;53.560;10.098;2022-07-18T12:40:03;6.50;;;3.28;;
55292;SDS011;41157;53.560;10.098;2022-07-18T12:42:37;7.88;;;3.75;;
55292;SDS011;41157;53.560;10.098;2022-07-18T12:45:03;11.23;;;3.80;;
55292;SDS011;41157;53.560;10.098;2022-07-18T12:47:30;7.88;;;3.45;;
55292;SDS011;41157;53.560;10.098;2022-07-18T12:49:56;5.78;;;3.40;;
55292;SDS011;41157;53.560;10.098;2022-07-18T12:52:22;7.18;;;3.30;;
55292;SDS011;41157;53.560;10.098;2022-07-18T12:54:48;14.50;;;4.53;;
55292;SDS011;41157;53.560;10.098;2022-07-18T12:57:15;5.20;;;3.38;;
55292;SDS011;41157;53.560;10.098;2022-07-18T12:59:41;3.83;;;3.53;;
55292;SDS011;41157;53.560;10.098;2022-07-18T13:02:07;4.45;;;3.17;;
55292;SDS011;41157;53.560;10.098;2022-07-18T13:04:33;3.45;;;3.15;;
55292;SDS011;41157;53.560;10.098;2022-07-18T13:06:59;7.75;;;3.05;;
55292;SDS011;41157;53.560;10.098;2022-07-18T13:09:25;4.90;;;3.88;;
55292;SDS011;41157;53.560;10.098;2022-07-18T13:11:51;3.38;;;3.00;;
55292;SDS011;41157;53.560;10.098;2022-07-18T13:14:17;5.47;;;3.08;;
55292;SDS011;41157;53.560;10.098;2022-07-18T13:16:43;7.18;;;2.80;;
55292;SDS011;41157;53.560;10.098;2022-07-18T13:19:13;6.05;;;3.33;;
55292;SDS011;41157;53.560;10.098;2022-07-18T13:21:43;3.53;;;2.80;;
55292;SDS011;41157;53.560;10.098;2022-07-18T13:24:09;4.15;;;3.15;;
55292;SDS011;41157;53.560;10.098;2022-07-18T13:26:36;4.53;;;3.15;;
55292;SDS011;41157;53.560;10.098;2022-07-18T13:29:02;5.32;;;3.10;;
55292;SDS011;41157;53.560;10.098;2022-07-18T13:31:28;6.78;;;3.10;;
55292;SDS011;41157;53.560;10.098;2022-07-18T13:33:55;10.05;;;3.33;;
55292;SDS011;41157;53.560;10.098;2022-07-18T13:36:21;5.78;;;3.25;;
55292;SDS011;41157;53.560;10.098;2022-07-18T13:38:47;4.25;;;3.40;;
55292;SDS011;41157;53.560;10.098;2022-07-18T13:41:13;4.95;;;3.40;;
55292;SDS011;41157;53.560;10.098;2022-07-18T13:43:39;6.43;;;3.30;;
55292;SDS011;41157;53.560;10.098;2022-07-18T13:46:05;7.15;;;3.40;;
55292;SDS011;41157;53.560;10.098;2022-07-18T13:48:33;11.68;;;4.03;;
55292;SDS011;41157;53.560;10.098;2022-07-18T13:50:59;4.32;;;3.22;;
55292;SDS011;41157;53.560;10.098;2022-07-18T13:53:25;6.78;;;3.55;;
55292;SDS011;41157;53.560;10.098;2022-07-18T13:55:51;4.03;;;3.00;;
55292;SDS011;41157;53.560;10.098;2022-07-18T13:58:17;7.70;;;2.75;;
55292;SDS011;41157;53.560;10.098;2022-07-18T14:00:44;5.70;;;2.80;;
55292;SDS011;41157;53.560;10.098;2022-07-18T14:03:10;6.18;;;2.85;;
55292;SDS011;41157;53.560;10.098;2022-07-18T14:05:37;4.05;;;2.28;;
55292;SDS011;41157;53.560;10.098;2022-07-18T14:08:04;9.90;;;2.53;;
55292;SDS011;41157;53.560;10.098;2022-07-18T14:10:30;2.53;;;2.33;;
55292;SDS011;41157;53.560;10.098;2022-07-18T14:12:57;4.35;;;2.08;;
55292;SDS011;41157;53.560;10.098;2022-07-18T14:15:23;6.13;;;3.00;;
55292;SDS011;41157;53.560;10.098;2022-07-18T14:17:49;29.40;;;3.17;;
55292;SDS011;41157;53.560;10.098;2022-07-18T14:20:15;17.48;;;2.90;;
55292;SDS011;41157;53.560;10.098;2022-07-18T14:22:42;9.55;;;2.88;;
55292;SDS011;41157;53.560;10.098;2022-07-18T14:25:10;11.52;;;3.00;;
55292;SDS011;41157;53.560;10.098;2022-07-18T14:27:36;4.07;;;2.90;;
55292;SDS011;41157;53.560;10.098;2022-07-18T14:30:04;5.28;;;2.80;;
55292;SDS011;41157;53.560;10.098;2022-07-18T14:32:30;3.05;;;2.70;;
55292;SDS011;41157;53.560;10.098;2022-07-18T14:34:56;6.70;;;2.67;;
55292;SDS011;41157;53.560;10.098;2022-07-18T14:37:22;9.70;;;3.20;;
55292;SDS011;41157;53.560;10.098;2022-07-18T14:39:48;9.18;;;3.22;;
55292;SDS011;41157;53.560;10.098;2022-07-18T14:42:14;17.73;;;4.70;;
55292;SDS011;41157;53.560;10.098;2022-07-18T14:44:40;7.28;;;3.55;;
55292;SDS011;41157;53.560;10.098;2022-07-18T14:47:06;6.05;;;2.92;;
55292;SDS011;41157;53.560;10.098;2022-07-18T14:49:32;10.75;;;2.97;;
55292;SDS011;41157;53.560;10.098;2022-07-18T14:51:58;8.65;;;2.78;;
55292;SDS011;41157;53.560;10.098;2022-07-18T14:54:26;21.00;;;3.15;;
55292;SDS011;41157;53.560;10.098;2022-07-18T14:56:52;22.73;;;3.90;;
55292;SDS011;41157;53.560;10.098;2022-07-18T14:59:18;7.88;;;2.92;;